sensor_id;sensor_type;location;lat;lon;timestamp;P1;durP1;ratioP1;P2;durP2;ratioP2
49416;SDS011;35290;39.550;8.786;2023-04-15T00:02:14;14.63;;;4.22;;
49416;SDS011;35290;39.550;8.786;2023-04-15T00:04:40;17.73;;;4.75;;
49416;SDS011;35290;39.550;8.786;2023-04-15T00:07:05;14.57;;;4.32;;
49416;SDS011;35290;39.550;8.786;2023-04-15T00:09:30;15.15;;;4.18;;
49416;SDS011;35290;39.550;8.786;2023-04-15T00:11:55;15.30;;;4.57;;
49416;SDS011;35290;39.550;8.786;2023-04-15T00:14:21;15.15;;;4.40;;
49416;SDS011;35290;39.550;8.786;2023-04-15T00:16:47;20.33;;;4.90;;
49416;SDS011;35290;39.550;8.786;2023-04-15T00:19:19;16.48;;;4.20;;
49416;SDS011;35290;39.550;8.786;2023-04-15T00:21:44;15.93;;;4.20;;
49416;SDS011;35290;39.550;8.786;2023-04-15T00:24:10;17.65;;;4.13;;
49416;SDS011;35290;39.550;8.786;2023-04-15T00:26:35;14.95;;;4.03;;
49416;SDS011;35290;39.550;8.786;2023-04-15T00:29:00;13.43;;;4.18;;
49416;SDS011;35290;39.550;8.786;2023-04-15T00:31:26;11.13;;;3.60;;
49416;SDS011;35290;39.550;8.786;2023-04-15T00:33:51;20.27;;;3.70;;
49416;SDS011;35290;39.550;8.786;2023-04-15T00:36:17;16.10;;;3.72;;
49416;SDS011;35290;39.550;8.786;2023-04-15T00:38:42;12.73;;;3.50;;
49416;SDS011;35290;39.550;8.786;2023-04-15T00:41:08;13.68;;;3.28;;
49416;SDS011;35290;39.550;8.786;2023-04-15T00:43:34;11.05;;;3.03;;
49416;SDS011;35290;39.550;8.786;2023-04-15T00:45:59;17.48;;;3.10;;
49416;SDS011;35290;39.550;8.786;2023-04-15T00:48:26;16.80;;;3.35;;
49416;SDS011;35290;39.550;8.786;2023-04-15T00:50:51;18.27;;;3.50;;
49416;SDS011;35290;39.550;8.786;2023-04-15T00:53:17;9.63;;;2.92;;
49416;SDS011;35290;39.550;8.786;2023-04-15T00:55:42;18.58;;;3.40;;
49416;SDS011;35290;39.550;8.786;2023-04-15T00:58:07;12.68;;;3.10;;
49416;SDS011;35290;39.550;8.786;2023-04-15T01:00:33;13.30;;;3.20;;
49416;SDS011;35290;39.550;8.786;2023-04-15T01:02:58;17.85;;;3.58;;
49416;SDS011;35290;39.550;8.786;2023-04-15T01:05:23;13.40;;;3.58;;
49416;SDS011;35290;39.550;8.786;2023-04-15T01:07:49;12.10;;;3.22;;
49416;SDS011;35290;39.550;8.786;2023-04-15T01:10:14;15.73;;;3.45;;
49416;SDS011;35290;39.550;8.786;2023-04-15T01:12:40;13.82;;;3.25;;
49416;SDS011;35290;39.550;8.786;2023-04-15T01:15:06;11.75;;;3.47;;
49416;SDS011;35290;39.550;8.786;2023-04-15T01:17:32;16.60;;;3.45;;
49416;SDS011;35290;39.550;8.786;2023-04-15T01:19:57;10.18;;;3.28;;
49416;SDS011;35290;39.550;8.786;2023-04-15T01:22:23;16.98;;;3.92;;
49416;SDS011;35290;39.550;8.786;2023-04-15T01:25:00;13.13;;;3.42;;
49416;SDS011;35290;39.550;8.786;2023-04-15T01:27:26;12.20;;;3.70;;
49416;SDS011;35290;39.550;8.786;2023-04-15T01:29:51;13.77;;;3.72;;
49416;SDS011;35290;39.550;8.786;2023-04-15T01:32:17;16.33;;;3.38;;
49416;SDS011;35290;39.550;8.786;2023-04-15T01:34:42;18.40;;;4.28;;
49416;SDS011;35290;39.550;8.786;2023-04-15T01:37:08;12.43;;;3.60;;
49416;SDS011;35290;39.550;8.786;2023-04-15T01:39:33;10.73;;;3.15;;
49416;SDS011;35290;39.550;8.786;2023-04-15T01:41:58;13.20;;;3.50;;
49416;SDS011;35290;39.550;8.786;2023-04-15T01:44:23;10.63;;;3.25;;
49416;SDS011;35290;39.550;8.786;2023-04-15T01:46:49;12.38;;;3.67;;
49416;SDS011;35290;39.550;8.786;2023-04-15T01:49:14;16.38;;;4.28;;
49416;SDS011;35290;39.550;8.786;2023-04-15T01:51:39;15.75;;;4.22;;
49416;SDS011;35290;39.550;8.786;2023-04-15T01:54:05;16.38;;;4.05;;
49416;SDS011;35290;39.550;8.786;2023-04-15T01:56:30;17.95;;;4.10;;
49416;SDS011;35290;39.550;8.786;2023-04-15T01:58:56;15.80;;;3.72;;
49416;SDS011;35290;39.550;8.786;2023-04-15T02:01:21;15.88;;;4.60;;
49416;SDS011;35290;39.550;8.786;2023-04-15T02:03:46;13.23;;;5.00;;
49416;SDS011;35290;39.550;8.786;2023-04-15T02:06:12;19.77;;;6.65;;
49416;SDS011;35290;39.550;8.786;2023-04-15T02:08:37;13.32;;;3.97;;
49416;SDS011;35290;39.550;8.786;2023-04-15T02:11:03;11.05;;;3.17;;
49416;SDS011;35290;39.550;8.786;2023-04-15T02:13:28;13.15;;;3.45;;
49416;SDS011;35290;39.550;8.786;2023-04-15T02:15:53;12.10;;;3.33;;
49416;SDS011;35290;39.550;8.786;2023-04-15T02:18:19;11.05;;;2.80;;
49416;SDS011;35290;39.550;8.786;2023-04-15T02:20:45;10.43;;;2.85;;
49416;SDS011;35290;39.550;8.786;2023-04-15T02:23:11;10.30;;;2.40;;
49416;SDS011;35290;39.550;8.786;2023-04-15T02:25:36;10.77;;;2.10;;
49416;SDS011;35290;39.550;8.786;2023-04-15T02:28:03;15.25;;;2.35;;
49416;SDS011;35290;39.550;8.786;2023-04-15T02:30:29;10.43;;;1.90;;
49416;SDS011;35290;39.550;8.786;2023-04-15T02:32:54;11.35;;;2.22;;
49416;SDS011;35290;39.550;8.786;2023-04-15T02:35:20;9.68;;;2.13;;
49416;SDS011;35290;39.550;8.786;2023-04-15T02:37:45;9.38;;;1.70;;
49416;SDS011;35290;39.550;8.786;2023-04-15T02:40:11;8.45;;;1.80;;
49416;SDS011;35290;39.550;8.786;2023-04-15T02:42:40;11.25;;;1.95;;
49416;SDS011;35290;39.550;8.786;2023-04-15T02:45:06;8.13;;;2.10;;
49416;SDS011;35290;39.550;8.786;2023-04-15T02:47:32;6.93;;;1.60;;
49416;SDS011;35290;39.550;8.786;2023-04-15T02:49:57;5.32;;;1.60;;
49416;SDS011;35290;39.550;8.786;2023-04-15T02:52:24;7.38;;;1.70;;
49416;SDS011;35290;39.550;8.786;2023-04-15T02:54:50;7.85;;;1.90;;
49416;SDS011;35290;39.550;8.786;2023-04-15T02:57:15;14.65;;;2.60;;
49416;SDS011;35290;39.550;8.786;2023-04-15T02:59:41;10.55;;;1.88;;
49416;SDS011;35290;39.550;8.786;2023-04-15T03:02:06;10.95;;;2.03;;
49416;SDS011;35290;39.550;8.786;2023-04-15T03:04:32;12.82;;;2.20;;
49416;SDS011;35290;39.550;8.786;2023-04-15T03:06:58;8.52;;;2.17;;
49416;SDS011;35290;39.550;8.786;2023-04-15T03:09:24;9.38;;;2.35;;
49416;SDS011;35290;39.550;8.786;2023-04-15T03:11:50;11.35;;;2.63;;
49416;SDS011;35290;39.550;8.786;2023-04-15T03:14:17;7.57;;;2.30;;
49416;SDS011;35290;39.550;8.786;2023-04-15T03:16:42;12.85;;;3.20;;
49416;SDS011;35290;39.550;8.786;2023-04-15T03:19:08;9.05;;;2.53;;
49416;SDS011;35290;39.550;8.786;2023-04-15T03:21:33;9.55;;;2.47;;
49416;SDS011;35290;39.550;8.786;2023-04-15T03:23:58;12.00;;;2.78;;
49416;SDS011;35290;39.550;8.786;2023-04-15T03:26:30;11.10;;;2.60;;
49416;SDS011;35290;39.550;8.786;2023-04-15T03:28:55;9.90;;;2.38;;
49416;SDS011;35290;39.550;8.786;2023-04-15T03:31:21;11.82;;;2.53;;
49416;SDS011;35290;39.550;8.786;2023-04-15T03:33:46;11.80;;;2.88;;
49416;SDS011;35290;39.550;8.786;2023-04-15T03:36:12;9.82;;;3.22;;
49416;SDS011;35290;39.550;8.786;2023-04-15T03:38:37;10.20;;;3.10;;
49416;SDS011;35290;39.550;8.786;2023-04-15T03:41:02;9.38;;;2.85;;
49416;SDS011;35290;39.550;8.786;2023-04-15T03:43:27;10.93;;;2.83;;
49416;SDS011;35290;39.550;8.786;2023-04-15T03:45:53;13.45;;;2.40;;
49416;SDS011;35290;39.550;8.786;2023-04-15T03:48:18;9.75;;;2.20;;
49416;SDS011;35290;39.550;8.786;2023-04-15T03:50:43;7.88;;;2.03;;
49416;SDS011;35290;39.550;8.786;2023-04-15T03:53:09;7.28;;;1.70;;
49416;SDS011;35290;39.550;8.786;2023-04-15T03:55:35;8.13;;;1.58;;
49416;SDS011;35290;39.550;8.786;2023-04-15T03:58:01;4.10;;;1.45;;
49416;SDS011;35290;39.550;8.786;2023-04-15T04:00:26;6.32;;;1.67;;
49416;SDS011;35290;39.550;8.786;2023-04-15T04:02:51;6.30;;;2.08;;
49416;SDS011;35290;39.550;8.786;2023-04-15T04:05:16;7.43;;;1.48;;
49416;SDS011;35290;39.550;8.786;2023-04-15T04:07:42;6.57;;;1.80;;
49416;SDS011;35290;39.550;8.786;2023-04-15T04:10:07;5.50;;;1.95;;
49416;SDS011;35290;39.550;8.786;2023-04-15T04:12:32;4.82;;;1.58;;
49416;SDS011;35290;39.550;8.786;2023-04-15T04:14:58;4.97;;;1.55;;
49416;SDS011;35290;39.550;8.786;2023-04-15T04:17:23;5.97;;;1.50;;
49416;SDS011;35290;39.550;8.786;2023-04-15T04:19:49;7.60;;;1.65;;
49416;SDS011;35290;39.550;8.786;2023-04-15T04:22:14;5.40;;;1.90;;
49416;SDS011;35290;39.550;8.786;2023-04-15T04:24:39;5.50;;;1.52;;
49416;SDS011;35290;39.550;8.786;2023-04-15T04:27:05;5.22;;;2.45;;
49416;SDS011;35290;39.550;8.786;2023-04-15T04:29:30;4.82;;;2.10;;
49416;SDS011;35290;39.550;8.786;2023-04-15T04:31:55;6.80;;;2.78;;
49416;SDS011;35290;39.550;8.786;2023-04-15T04:34:21;8.95;;;2.65;;
49416;SDS011;35290;39.550;8.786;2023-04-15T04:36:52;7.88;;;2.30;;
49416;SDS011;35290;39.550;8.786;2023-04-15T04:39:17;6.57;;;2.35;;
49416;SDS011;35290;39.550;8.786;2023-04-15T04:41:43;5.97;;;2.10;;
49416;SDS011;35290;39.550;8.786;2023-04-15T04:44:08;10.77;;;2.30;;
49416;SDS011;35290;39.550;8.786;2023-04-15T04:46:33;8.65;;;2.40;;
49416;SDS011;35290;39.550;8.786;2023-04-15T04:48:59;8.00;;;2.42;;
49416;SDS011;35290;39.550;8.786;2023-04-15T04:51:24;6.43;;;2.25;;
49416;SDS011;35290;39.550;8.786;2023-04-15T04:53:50;7.18;;;2.60;;
49416;SDS011;35290;39.550;8.786;2023-04-15T04:56:15;5.53;;;1.98;;
49416;SDS011;35290;39.550;8.786;2023-04-15T04:58:41;7.38;;;2.58;;
49416;SDS011;35290;39.550;8.786;2023-04-15T05:01:06;6.50;;;2.00;;
49416;SDS011;35290;39.550;8.786;2023-04-15T05:03:31;6.95;;;2.38;;
49416;SDS011;35290;39.550;8.786;2023-04-15T05:05:57;10.05;;;3.15;;
49416;SDS011;35290;39.550;8.786;2023-04-15T05:08:23;7.18;;;2.15;;
49416;SDS011;35290;39.550;8.786;2023-04-15T05:10:48;10.52;;;5.35;;
49416;SDS011;35290;39.550;8.786;2023-04-15T05:13:14;10.93;;;4.97;;
49416;SDS011;35290;39.550;8.786;2023-04-15T05:15:41;13.07;;;4.50;;
49416;SDS011;35290;39.550;8.786;2023-04-15T05:18:07;7.97;;;3.80;;
49416;SDS011;35290;39.550;8.786;2023-04-15T05:20:32;7.13;;;2.60;;
49416;SDS011;35290;39.550;8.786;2023-04-15T05:22:57;7.40;;;2.30;;
49416;SDS011;35290;39.550;8.786;2023-04-15T05:25:23;4.63;;;1.98;;
49416;SDS011;35290;39.550;8.786;2023-04-15T05:27:48;6.95;;;1.90;;
49416;SDS011;35290;39.550;8.786;2023-04-15T05:30:13;5.05;;;2.20;;
49416;SDS011;35290;39.550;8.786;2023-04-15T05:32:39;8.55;;;3.53;;
49416;SDS011;35290;39.550;8.786;2023-04-15T05:35:04;5.97;;;2.63;;
49416;SDS011;35290;39.550;8.786;2023-04-15T05:37:30;6.45;;;2.50;;
49416;SDS011;35290;39.550;8.786;2023-04-15T05:39:55;4.65;;;1.85;;
49416;SDS011;35290;39.550;8.786;2023-04-15T05:42:21;6.00;;;1.85;;
49416;SDS011;35290;39.550;8.786;2023-04-15T05:44:46;2.95;;;1.70;;
49416;SDS011;35290;39.550;8.786;2023-04-15T05:47:11;7.72;;;1.77;;
49416;SDS011;35290;39.550;8.786;2023-04-15T05:49:37;4.05;;;2.08;;
49416;SDS011;35290;39.550;8.786;2023-04-15T05:52:02;3.47;;;1.83;;
49416;SDS011;35290;39.550;8.786;2023-04-15T05:54:27;3.45;;;1.52;;
49416;SDS011;35290;39.550;8.786;2023-04-15T05:56:53;4.55;;;2.03;;
49416;SDS011;35290;39.550;8.786;2023-04-15T05:59:19;3.90;;;1.40;;
49416;SDS011;35290;39.550;8.786;2023-04-15T06:01:44;3.83;;;1.50;;
49416;SDS011;35290;39.550;8.786;2023-04-15T06:04:10;3.10;;;1.52;;
49416;SDS011;35290;39.550;8.786;2023-04-15T06:06:38;6.15;;;1.50;;
49416;SDS011;35290;39.550;8.786;2023-04-15T06:09:04;4.53;;;1.42;;
49416;SDS011;35290;39.550;8.786;2023-04-15T06:11:30;4.10;;;1.30;;
49416;SDS011;35290;39.550;8.786;2023-04-15T06:13:55;4.68;;;1.70;;
49416;SDS011;35290;39.550;8.786;2023-04-15T06:16:21;3.60;;;1.45;;
49416;SDS011;35290;39.550;8.786;2023-04-15T06:18:47;3.13;;;1.00;;
49416;SDS011;35290;39.550;8.786;2023-04-15T06:21:12;3.53;;;1.08;;
49416;SDS011;35290;39.550;8.786;2023-04-15T06:23:37;2.95;;;1.13;;
49416;SDS011;35290;39.550;8.786;2023-04-15T06:26:05;3.17;;;0.90;;
49416;SDS011;35290;39.550;8.786;2023-04-15T06:28:30;3.85;;;1.20;;
49416;SDS011;35290;39.550;8.786;2023-04-15T06:30:56;3.08;;;1.10;;
49416;SDS011;35290;39.550;8.786;2023-04-15T06:33:21;3.20;;;0.98;;
49416;SDS011;35290;39.550;8.786;2023-04-15T06:35:49;2.42;;;0.93;;
49416;SDS011;35290;39.550;8.786;2023-04-15T06:38:15;1.95;;;0.70;;
49416;SDS011;35290;39.550;8.786;2023-04-15T06:40:43;3.28;;;0.90;;
49416;SDS011;35290;39.550;8.786;2023-04-15T06:43:16;3.83;;;0.80;;
49416;SDS011;35290;39.550;8.786;2023-04-15T06:45:42;2.00;;;0.82;;
49416;SDS011;35290;39.550;8.786;2023-04-15T06:48:08;4.57;;;0.82;;
49416;SDS011;35290;39.550;8.786;2023-04-15T06:50:39;2.63;;;0.98;;
49416;SDS011;35290;39.550;8.786;2023-04-15T06:53:07;3.38;;;1.02;;
49416;SDS011;35290;39.550;8.786;2023-04-15T06:55:32;3.50;;;1.60;;
49416;SDS011;35290;39.550;8.786;2023-04-15T06:57:58;2.85;;;1.50;;
49416;SDS011;35290;39.550;8.786;2023-04-15T07:00:23;2.47;;;1.50;;
49416;SDS011;35290;39.550;8.786;2023-04-15T07:02:49;3.08;;;1.15;;
49416;SDS011;35290;39.550;8.786;2023-04-15T07:05:15;6.18;;;2.80;;
49416;SDS011;35290;39.550;8.786;2023-04-15T07:07:40;8.13;;;2.10;;
49416;SDS011;35290;39.550;8.786;2023-04-15T07:10:06;4.28;;;2.08;;
49416;SDS011;35290;39.550;8.786;2023-04-15T07:12:31;4.50;;;1.20;;
49416;SDS011;35290;39.550;8.786;2023-04-15T07:14:57;5.85;;;1.10;;
49416;SDS011;35290;39.550;8.786;2023-04-15T07:17:22;9.55;;;1.25;;
49416;SDS011;35290;39.550;8.786;2023-04-15T07:19:48;4.32;;;1.48;;
49416;SDS011;35290;39.550;8.786;2023-04-15T07:22:13;3.30;;;1.10;;
49416;SDS011;35290;39.550;8.786;2023-04-15T07:24:38;11.40;;;6.40;;
49416;SDS011;35290;39.550;8.786;2023-04-15T07:27:04;5.32;;;2.63;;
49416;SDS011;35290;39.550;8.786;2023-04-15T07:29:29;5.90;;;2.42;;
49416;SDS011;35290;39.550;8.786;2023-04-15T07:31:55;33.28;;;17.90;;
49416;SDS011;35290;39.550;8.786;2023-04-15T07:34:21;12.68;;;5.88;;
49416;SDS011;35290;39.550;8.786;2023-04-15T07:36:46;14.10;;;6.13;;
49416;SDS011;35290;39.550;8.786;2023-04-15T07:39:16;15.18;;;7.05;;
49416;SDS011;35290;39.550;8.786;2023-04-15T07:41:41;20.33;;;8.25;;
49416;SDS011;35290;39.550;8.786;2023-04-15T07:44:07;12.65;;;4.25;;
49416;SDS011;35290;39.550;8.786;2023-04-15T07:46:32;9.32;;;3.10;;
49416;SDS011;35290;39.550;8.786;2023-04-15T07:48:57;6.32;;;1.70;;
49416;SDS011;35290;39.550;8.786;2023-04-15T07:51:28;5.63;;;1.35;;
49416;SDS011;35290;39.550;8.786;2023-04-15T07:53:56;5.28;;;1.40;;
49416;SDS011;35290;39.550;8.786;2023-04-15T07:56:40;9.35;;;3.38;;
49416;SDS011;35290;39.550;8.786;2023-04-15T07:59:05;39.90;;;20.00;;
49416;SDS011;35290;39.550;8.786;2023-04-15T08:01:31;19.35;;;9.20;;
49416;SDS011;35290;39.550;8.786;2023-04-15T08:03:57;9.35;;;1.90;;
49416;SDS011;35290;39.550;8.786;2023-04-15T08:06:22;5.65;;;0.90;;
49416;SDS011;35290;39.550;8.786;2023-04-15T08:08:48;5.10;;;1.08;;
49416;SDS011;35290;39.550;8.786;2023-04-15T08:11:13;5.28;;;1.08;;
49416;SDS011;35290;39.550;8.786;2023-04-15T08:13:38;4.65;;;0.90;;
49416;SDS011;35290;39.550;8.786;2023-04-15T08:16:15;4.70;;;0.77;;
49416;SDS011;35290;39.550;8.786;2023-04-15T08:18:41;7.28;;;1.85;;
49416;SDS011;35290;39.550;8.786;2023-04-15T08:21:06;8.10;;;2.15;;
49416;SDS011;35290;39.550;8.786;2023-04-15T08:23:32;8.27;;;1.90;;
49416;SDS011;35290;39.550;8.786;2023-04-15T08:25:58;5.65;;;1.00;;
49416;SDS011;35290;39.550;8.786;2023-04-15T08:28:24;8.95;;;2.17;;
49416;SDS011;35290;39.550;8.786;2023-04-15T08:30:49;10.43;;;1.80;;
49416;SDS011;35290;39.550;8.786;2023-04-15T08:33:16;6.20;;;1.40;;
49416;SDS011;35290;39.550;8.786;2023-04-15T08:35:41;6.22;;;1.38;;
49416;SDS011;35290;39.550;8.786;2023-04-15T08:38:12;9.48;;;1.85;;
49416;SDS011;35290;39.550;8.786;2023-04-15T08:40:44;6.43;;;1.27;;
49416;SDS011;35290;39.550;8.786;2023-04-15T08:54:28;7.50;;;1.67;;
49416;SDS011;35290;39.550;8.786;2023-04-15T09:22:44;15.30;;;3.17;;
49416;SDS011;35290;39.550;8.786;2023-04-15T09:52:12;13.10;;;3.15;;
49416;SDS011;35290;39.550;8.786;2023-04-15T10:04:07;17.88;;;3.92;;
49416;SDS011;35290;39.550;8.786;2023-04-15T10:09:25;17.35;;;2.70;;
49416;SDS011;35290;39.550;8.786;2023-04-15T11:32:12;11.75;;;2.42;;
49416;SDS011;35290;39.550;8.786;2023-04-15T12:10:43;17.05;;;3.35;;
49416;SDS011;35290;39.550;8.786;2023-04-15T12:18:57;16.48;;;3.22;;
49416;SDS011;35290;39.550;8.786;2023-04-15T12:24:02;13.70;;;2.92;;
49416;SDS011;35290;39.550;8.786;2023-04-15T12:29:19;11.18;;;2.63;;
49416;SDS011;35290;39.550;8.786;2023-04-15T13:45:49;9.45;;;2.03;;
49416;SDS011;35290;39.550;8.786;2023-04-15T13:59:43;20.15;;;3.58;;
49416;SDS011;35290;39.550;8.786;2023-04-15T14:28:52;8.57;;;1.90;;
49416;SDS011;35290;39.550;8.786;2023-04-15T14:31:39;7.82;;;1.83;;
49416;SDS011;35290;39.550;8.786;2023-04-15T14:39:41;11.05;;;2.70;;
49416;SDS011;35290;39.550;8.786;2023-04-15T14:42:07;13.23;;;2.67;;
49416;SDS011;35290;39.550;8.786;2023-04-15T15:23:29;14.55;;;2.75;;
49416;SDS011;35290;39.550;8.786;2023-04-15T15:34:53;14.90;;;3.17;;
49416;SDS011;35290;39.550;8.786;2023-04-15T15:37:24;10.35;;;1.95;;
49416;SDS011;35290;39.550;8.786;2023-04-15T15:59:16;16.48;;;2.45;;
49416;SDS011;35290;39.550;8.786;2023-04-15T16:43:17;21.67;;;4.65;;
49416;SDS011;35290;39.550;8.786;2023-04-15T18:23:08;11.38;;;2.65;;
49416;SDS011;35290;39.550;8.786;2023-04-15T18:32:07;8.95;;;2.00;;
49416;SDS011;35290;39.550;8.786;2023-04-15T18:38:20;15.27;;;3.70;;
49416;SDS011;35290;39.550;8.786;2023-04-15T19:00:57;19.08;;;3.03;;
49416;SDS011;35290;39.550;8.786;2023-04-15T19:10:30;14.90;;;3.13;;
49416;SDS011;35290;39.550;8.786;2023-04-15T19:35:38;19.73;;;4.55;;
49416;SDS011;35290;39.550;8.786;2023-04-15T19:38:20;16.75;;;2.67;;
49416;SDS011;35290;39.550;8.786;2023-04-15T19:44:38;15.75;;;3.08;;
49416;SDS011;35290;39.550;8.786;2023-04-15T19:47:19;16.02;;;4.07;;
49416;SDS011;35290;39.550;8.786;2023-04-15T19:52:37;18.00;;;5.05;;
49416;SDS011;35290;39.550;8.786;2023-04-15T19:55:10;14.52;;;4.13;;
49416;SDS011;35290;39.550;8.786;2023-04-15T19:57:35;18.75;;;3.92;;
49416;SDS011;35290;39.550;8.786;2023-04-15T20:00:04;21.77;;;5.30;;
49416;SDS011;35290;39.550;8.786;2023-04-15T20:02:41;20.70;;;4.38;;
49416;SDS011;35290;39.550;8.786;2023-04-15T20:05:09;12.98;;;3.30;;
49416;SDS011;35290;39.550;8.786;2023-04-15T20:07:34;13.82;;;2.83;;
49416;SDS011;35290;39.550;8.786;2023-04-15T20:10:00;17.70;;;3.60;;
49416;SDS011;35290;39.550;8.786;2023-04-15T20:12:25;21.85;;;3.83;;
49416;SDS011;35290;39.550;8.786;2023-04-15T20:15:24;16.38;;;2.97;;
49416;SDS011;35290;39.550;8.786;2023-04-15T20:17:52;15.55;;;2.92;;
49416;SDS011;35290;39.550;8.786;2023-04-15T20:20:18;18.65;;;3.38;;
49416;SDS011;35290;39.550;8.786;2023-04-15T20:22:43;24.10;;;3.10;;
49416;SDS011;35290;39.550;8.786;2023-04-15T20:25:08;15.73;;;2.60;;
49416;SDS011;35290;39.550;8.786;2023-04-15T20:27:34;16.60;;;3.15;;
49416;SDS011;35290;39.550;8.786;2023-04-15T20:30:03;11.57;;;2.28;;
49416;SDS011;35290;39.550;8.786;2023-04-15T20:32:29;12.55;;;2.72;;
49416;SDS011;35290;39.550;8.786;2023-04-15T20:41:09;22.00;;;4.40;;
49416;SDS011;35290;39.550;8.786;2023-04-15T20:43:47;21.40;;;3.67;;
49416;SDS011;35290;39.550;8.786;2023-04-15T20:52:01;19.58;;;2.58;;
49416;SDS011;35290;39.550;8.786;2023-04-15T20:54:26;17.50;;;3.40;;
49416;SDS011;35290;39.550;8.786;2023-04-15T20:56:52;17.95;;;3.42;;
49416;SDS011;35290;39.550;8.786;2023-04-15T20:59:17;20.80;;;3.20;;
49416;SDS011;35290;39.550;8.786;2023-04-15T21:01:42;23.52;;;3.45;;
49416;SDS011;35290;39.550;8.786;2023-04-15T21:04:09;16.45;;;2.78;;
49416;SDS011;35290;39.550;8.786;2023-04-15T21:06:35;18.58;;;3.33;;
49416;SDS011;35290;39.550;8.786;2023-04-15T21:09:00;22.05;;;3.38;;
49416;SDS011;35290;39.550;8.786;2023-04-15T21:11:26;20.75;;;3.22;;
49416;SDS011;35290;39.550;8.786;2023-04-15T21:13:51;25.73;;;3.70;;
49416;SDS011;35290;39.550;8.786;2023-04-15T21:16:16;23.55;;;3.90;;
49416;SDS011;35290;39.550;8.786;2023-04-15T21:18:42;21.50;;;3.38;;
49416;SDS011;35290;39.550;8.786;2023-04-15T21:21:07;18.80;;;2.80;;
49416;SDS011;35290;39.550;8.786;2023-04-15T21:23:33;17.48;;;3.03;;
49416;SDS011;35290;39.550;8.786;2023-04-15T21:26:14;15.88;;;2.83;;
49416;SDS011;35290;39.550;8.786;2023-04-15T21:29:00;20.30;;;3.17;;
49416;SDS011;35290;39.550;8.786;2023-04-15T21:31:25;17.25;;;3.00;;
49416;SDS011;35290;39.550;8.786;2023-04-15T21:33:50;22.83;;;2.88;;
49416;SDS011;35290;39.550;8.786;2023-04-15T21:36:16;17.45;;;2.78;;
49416;SDS011;35290;39.550;8.786;2023-04-15T21:38:41;19.55;;;3.10;;
49416;SDS011;35290;39.550;8.786;2023-04-15T21:41:07;10.73;;;1.63;;
49416;SDS011;35290;39.550;8.786;2023-04-15T21:43:34;10.00;;;1.92;;
49416;SDS011;35290;39.550;8.786;2023-04-15T21:45:59;18.50;;;3.47;;
49416;SDS011;35290;39.550;8.786;2023-04-15T21:48:25;17.60;;;2.80;;
49416;SDS011;35290;39.550;8.786;2023-04-15T21:50:50;21.23;;;3.13;;
49416;SDS011;35290;39.550;8.786;2023-04-15T21:53:16;17.55;;;2.53;;
49416;SDS011;35290;39.550;8.786;2023-04-15T21:55:41;15.50;;;2.75;;
49416;SDS011;35290;39.550;8.786;2023-04-15T21:58:06;17.83;;;2.65;;
49416;SDS011;35290;39.550;8.786;2023-04-15T22:00:32;16.42;;;1.77;;
49416;SDS011;35290;39.550;8.786;2023-04-15T22:02:58;13.10;;;2.10;;
49416;SDS011;35290;39.550;8.786;2023-04-15T22:05:24;16.67;;;2.35;;
49416;SDS011;35290;39.550;8.786;2023-04-15T22:07:50;18.92;;;2.58;;
49416;SDS011;35290;39.550;8.786;2023-04-15T22:10:15;9.55;;;1.88;;
49416;SDS011;35290;39.550;8.786;2023-04-15T22:12:40;16.27;;;2.25;;
49416;SDS011;35290;39.550;8.786;2023-04-15T22:15:06;17.48;;;3.25;;
49416;SDS011;35290;39.550;8.786;2023-04-15T22:17:32;14.02;;;2.50;;
49416;SDS011;35290;39.550;8.786;2023-04-15T22:19:58;15.18;;;2.30;;
49416;SDS011;35290;39.550;8.786;2023-04-15T22:22:23;17.10;;;2.28;;
49416;SDS011;35290;39.550;8.786;2023-04-15T22:24:48;19.98;;;2.80;;
49416;SDS011;35290;39.550;8.786;2023-04-15T22:27:14;17.27;;;3.30;;
49416;SDS011;35290;39.550;8.786;2023-04-15T22:29:39;13.55;;;2.10;;
49416;SDS011;35290;39.550;8.786;2023-04-15T22:32:05;17.95;;;2.67;;
49416;SDS011;35290;39.550;8.786;2023-04-15T22:34:31;16.02;;;2.75;;
49416;SDS011;35290;39.550;8.786;2023-04-15T22:36:56;21.20;;;2.90;;
49416;SDS011;35290;39.550;8.786;2023-04-15T22:39:21;17.00;;;3.13;;
49416;SDS011;35290;39.550;8.786;2023-04-15T22:41:47;16.30;;;2.92;;
49416;SDS011;35290;39.550;8.786;2023-04-15T22:44:12;20.33;;;3.78;;
49416;SDS011;35290;39.550;8.786;2023-04-15T22:46:37;24.38;;;4.60;;
49416;SDS011;35290;39.550;8.786;2023-04-15T22:49:06;28.65;;;3.75;;
49416;SDS011;35290;39.550;8.786;2023-04-15T22:51:32;20.15;;;3.00;;
49416;SDS011;35290;39.550;8.786;2023-04-15T22:53:57;22.85;;;2.80;;
49416;SDS011;35290;39.550;8.786;2023-04-15T22:56:23;25.52;;;3.65;;
49416;SDS011;35290;39.550;8.786;2023-04-15T22:58:48;18.17;;;2.97;;
49416;SDS011;35290;39.550;8.786;2023-04-15T23:01:19;17.73;;;2.70;;
49416;SDS011;35290;39.550;8.786;2023-04-15T23:03:48;25.25;;;3.17;;
49416;SDS011;35290;39.550;8.786;2023-04-15T23:06:14;20.95;;;3.72;;
49416;SDS011;35290;39.550;8.786;2023-04-15T23:08:39;23.02;;;3.38;;
49416;SDS011;35290;39.550;8.786;2023-04-15T23:11:05;18.73;;;2.88;;
49416;SDS011;35290;39.550;8.786;2023-04-15T23:13:31;21.50;;;2.85;;
49416;SDS011;35290;39.550;8.786;2023-04-15T23:15:56;23.63;;;3.35;;
49416;SDS011;35290;39.550;8.786;2023-04-15T23:18:21;21.42;;;3.45;;
49416;SDS011;35290;39.550;8.786;2023-04-15T23:20:47;23.42;;;3.72;;
49416;SDS011;35290;39.550;8.786;2023-04-15T23:23:12;27.55;;;4.00;;
49416;SDS011;35290;39.550;8.786;2023-04-15T23:25:38;23.55;;;3.25;;
49416;SDS011;35290;39.550;8.786;2023-04-15T23:28:03;23.30;;;4.03;;
49416;SDS011;35290;39.550;8.786;2023-04-15T23:30:28;21.15;;;3.22;;
49416;SDS011;35290;39.550;8.786;2023-04-15T23:32:54;17.27;;;2.88;;
49416;SDS011;35290;39.550;8.786;2023-04-15T23:35:22;24.10;;;3.15;;
49416;SDS011;35290;39.550;8.786;2023-04-15T23:37:47;21.92;;;2.95;;
49416;SDS011;35290;39.550;8.786;2023-04-15T23:40:12;27.05;;;3.88;;
49416;SDS011;35290;39.550;8.786;2023-04-15T23:42:38;30.80;;;5.38;;
49416;SDS011;35290;39.550;8.786;2023-04-15T23:45:03;24.45;;;3.50;;
49416;SDS011;35290;39.550;8.786;2023-04-15T23:47:28;29.67;;;3.85;;
49416;SDS011;35290;39.550;8.786;2023-04-15T23:49:54;26.30;;;4.38;;
49416;SDS011;35290;39.550;8.786;2023-04-15T23:52:19;28.75;;;3.78;;
49416;SDS011;35290;39.550;8.786;2023-04-15T23:54:44;18.88;;;2.60;;
49416;SDS011;35290;39.550;8.786;2023-04-15T23:57:10;21.65;;;3.35;;
49416;SDS011;35290;39.550;8.786;2023-04-15T23:59:35;22.63;;;3.50;;
